createdAt,value
2018-12-03T00:01:33.974Z,94669.60
2018-12-03T00:04:10.778Z,94659.69
2018-12-03T00:06:39.225Z,94661.97
2018-12-03T00:09:08.765Z,94672.00
2018-12-03T00:11:37.812Z,94674.75
2018-12-03T00:14:06.297Z,94681.39
2018-12-03T00:16:34.800Z,94682.19
2018-12-03T00:19:05.811Z,94666.33
2018-12-03T00:21:34.255Z,94671.95
2018-12-03T00:24:05.706Z,94671.67
2018-12-03T00:26:34.173Z,94677.09
2018-12-03T00:29:04.569Z,94678.59
2018-12-03T00:31:32.991Z,94674.75
2018-12-03T00:34:04.161Z,94672.05
2018-12-03T00:36:32.594Z,94666.38
2018-12-03T00:39:03.577Z,94669.45
2018-12-03T00:41:31.985Z,94668.70
2018-12-03T00:44:00.445Z,94674.02
2018-12-03T00:46:28.865Z,94668.92
2018-12-03T00:48:57.370Z,94669.83
2018-12-03T00:51:25.777Z,94658.55
2018-12-03T00:53:54.180Z,94663.38
2018-12-03T00:56:22.618Z,94671.73
2018-12-03T00:58:51.029Z,94675.32
2018-12-03T01:01:19.472Z,94673.50
2018-12-03T01:03:47.892Z,94664.86
2018-12-03T01:06:16.359Z,94666.16
2018-12-03T01:08:44.764Z,94661.55
2018-12-03T01:11:13.233Z,94667.31
2018-12-03T01:13:41.646Z,94676.13
2018-12-03T01:16:10.108Z,94674.63
2018-12-03T01:18:38.537Z,94680.70
2018-12-03T01:21:06.984Z,94675.23
2018-12-03T01:23:35.401Z,94678.14
2018-12-03T01:26:05.004Z,94684.02
2018-12-03T01:28:33.429Z,94686.81
2018-12-03T01:31:03.714Z,94671.78
2018-12-03T01:33:32.112Z,94676.30
2018-12-03T01:36:00.552Z,94666.41
2018-12-03T01:38:28.953Z,94665.11
2018-12-03T01:40:57.389Z,94671.02
2018-12-03T01:43:25.818Z,94671.85
2018-12-03T01:45:54.258Z,94675.39
2018-12-03T01:48:22.668Z,94669.10
2018-12-03T01:50:51.112Z,94662.13
2018-12-03T01:53:19.544Z,94672.00
2018-12-03T01:55:47.998Z,94670.03
2018-12-03T01:58:16.412Z,94670.98
2018-12-03T02:00:44.872Z,94666.73
2018-12-03T02:03:13.285Z,94669.28
2018-12-03T02:05:41.796Z,94668.33
2018-12-03T02:08:10.224Z,94669.23
2018-12-03T02:10:38.672Z,94660.30
2018-12-03T02:13:07.118Z,94661.59
2018-12-03T02:15:35.598Z,94658.64
2018-12-03T02:18:05.429Z,94657.07
2018-12-03T02:20:33.905Z,94659.82
2018-12-03T02:23:05.434Z,94662.06
2018-12-03T02:25:33.861Z,94645.86
2018-12-03T02:28:04.649Z,94658.80
2018-12-03T02:30:33.103Z,94662.84
2018-12-03T02:33:03.724Z,94658.02
2018-12-03T02:35:32.178Z,94657.49
2018-12-03T02:38:00.981Z,94659.52
2018-12-03T02:40:36.930Z,94656.24
2018-12-03T02:43:05.904Z,94662.84
2018-12-03T02:45:34.425Z,94658.44
2018-12-03T02:48:05.700Z,94657.92
2018-12-03T02:50:34.128Z,94660.47
2018-12-03T02:53:07.108Z,94662.23
2018-12-03T02:55:35.613Z,94674.27
2018-12-03T02:58:05.834Z,94671.34
2018-12-03T03:00:39.086Z,94671.86
2018-12-03T03:03:07.905Z,94674.13
2018-12-03T03:05:36.359Z,94669.89
2018-12-03T03:08:05.299Z,94669.00
2018-12-03T03:10:33.737Z,94675.02
2018-12-03T03:13:05.461Z,94670.52
2018-12-03T03:15:33.874Z,94666.03
2018-12-03T03:18:04.410Z,94672.42
2018-12-03T03:20:32.880Z,94669.22
2018-12-03T03:23:03.647Z,94678.66
2018-12-03T03:25:32.069Z,94675.91
2018-12-03T03:28:00.517Z,94678.30
2018-12-03T03:30:28.925Z,94674.76
2018-12-03T03:32:57.377Z,94673.05
2018-12-03T03:35:25.810Z,94676.67
2018-12-03T03:37:54.258Z,94675.79
2018-12-03T03:40:22.733Z,94688.87
2018-12-03T03:42:51.185Z,94683.38
2018-12-03T03:45:21.148Z,94683.58
2018-12-03T03:47:49.633Z,94684.10
2018-12-03T03:50:18.081Z,94679.39
2018-12-03T03:52:46.535Z,94692.16
2018-12-03T03:55:14.964Z,94691.38
2018-12-03T03:57:43.437Z,94690.44
2018-12-03T04:00:13.273Z,94690.97
2018-12-03T04:02:41.743Z,94690.23
2018-12-03T04:05:11.369Z,94685.78
2018-12-03T04:07:40.214Z,94679.49
2018-12-03T04:10:10.547Z,94684.06
2018-12-03T04:12:39.161Z,94679.28
2018-12-03T04:15:09.641Z,94682.91
2018-12-03T04:17:38.069Z,94677.36
2018-12-03T04:20:10.022Z,94676.06
2018-12-03T04:22:38.509Z,94685.15
2018-12-03T04:25:08.482Z,94683.80
2018-12-03T04:27:36.956Z,94679.80
2018-12-03T04:30:09.224Z,94682.80
2018-12-03T04:32:37.718Z,94684.66
2018-12-03T04:35:06.401Z,94689.91
2018-12-03T04:37:34.841Z,94688.25
2018-12-03T04:40:07.259Z,94690.85
2018-12-03T04:42:35.685Z,94691.73
2018-12-03T04:45:10.132Z,94695.83
2018-12-03T04:47:38.602Z,94687.14
2018-12-03T04:50:15.920Z,94687.66
2018-12-03T04:52:44.384Z,94686.09
2018-12-03T04:55:13.564Z,94684.02
2018-12-03T04:57:41.996Z,94676.30
2018-12-03T05:00:18.088Z,94672.08
2018-12-03T05:02:48.915Z,94664.88
2018-12-03T05:05:17.423Z,94669.69
2018-12-03T05:07:52.186Z,94679.41
2018-12-03T05:10:21.540Z,94680.31
2018-12-03T05:12:51.092Z,94665.11
2018-12-03T05:15:19.545Z,94677.52
2018-12-03T05:17:47.975Z,94667.41
2018-12-03T05:20:17.901Z,94677.05
2018-12-03T05:22:46.322Z,94675.25
2018-12-03T05:25:19.085Z,94682.25
2018-12-03T05:27:43.241Z,94675.88
2018-12-03T05:30:12.642Z,94674.77
2018-12-03T05:32:41.624Z,94672.52
2018-12-03T05:35:26.316Z,94678.78
2018-12-03T05:37:54.747Z,94676.06
2018-12-03T05:40:28.786Z,94678.78
2018-12-03T05:42:57.179Z,94686.38
2018-12-03T05:45:25.617Z,94688.73
2018-12-03T05:47:54.005Z,94689.69
2018-12-03T05:50:22.488Z,94686.30
2018-12-03T05:52:50.888Z,94675.59
2018-12-03T05:55:19.301Z,94683.77
2018-12-03T05:57:47.747Z,94677.48
2018-12-03T06:00:23.976Z,94684.22
2018-12-03T06:02:52.410Z,94679.45
2018-12-03T06:05:20.924Z,94679.30
2018-12-03T06:07:49.345Z,94685.12
2018-12-03T06:10:18.956Z,94682.52
2018-12-03T06:12:47.416Z,94679.45
2018-12-03T06:15:16.904Z,94695.23
2018-12-03T06:17:45.816Z,94699.81
2018-12-03T06:20:15.393Z,94688.19
2018-12-03T06:22:43.872Z,94690.98
2018-12-03T06:25:16.059Z,94693.73
2018-12-03T06:27:44.708Z,94693.06
2018-12-03T06:30:15.459Z,94698.63
2018-12-03T06:32:43.900Z,94693.69
2018-12-03T06:35:13.249Z,94693.27
2018-12-03T06:37:41.772Z,94693.46
2018-12-03T06:40:18.412Z,94698.73
2018-12-03T06:42:47.162Z,94703.36
2018-12-03T06:45:16.834Z,94700.90
2018-12-03T06:48:22.500Z,94706.92
2018-12-03T06:50:50.885Z,94708.30
2018-12-03T06:53:19.593Z,94720.24
2018-12-03T06:55:48.005Z,94709.58
2018-12-03T06:58:16.836Z,94707.25
2018-12-03T07:00:47.359Z,94722.69
2018-12-03T07:03:15.912Z,94715.88
2018-12-03T07:05:45.753Z,94712.17
2018-12-03T07:08:14.144Z,94720.84
2018-12-03T07:10:43.053Z,94724.12
2018-12-03T07:13:16.889Z,94720.06
2018-12-03T07:15:46.148Z,94719.69
2018-12-03T07:18:14.632Z,94722.33
2018-12-03T07:20:43.942Z,94713.58
2018-12-03T07:23:12.355Z,94735.41
2018-12-03T07:25:40.821Z,94736.20
2018-12-03T07:28:09.242Z,94733.28
2018-12-03T07:30:37.730Z,94746.23
2018-12-03T07:33:06.333Z,94743.13
2018-12-03T07:35:34.880Z,94731.83
2018-12-03T07:38:05.498Z,94737.74
2018-12-03T07:40:33.921Z,94740.06
2018-12-03T07:43:04.736Z,94730.81
2018-12-03T07:45:33.209Z,94727.59
2018-12-03T07:48:03.688Z,94730.73
2018-12-03T07:50:32.125Z,94747.33
2018-12-03T07:53:00.712Z,94746.38
2018-12-03T07:55:29.116Z,94752.53
2018-12-03T07:58:06.601Z,94750.44
2018-12-03T08:00:43.234Z,94752.09
2018-12-03T08:03:11.719Z,94747.05
2018-12-03T08:05:40.185Z,94746.77
2018-12-03T08:08:09.228Z,94742.72
2018-12-03T08:10:38.156Z,94752.69
2018-12-03T08:13:08.757Z,94745.08
2018-12-03T08:15:37.189Z,94755.28
2018-12-03T08:18:08.455Z,94745.00
2018-12-03T08:20:43.220Z,94746.30
2018-12-03T08:23:24.473Z,94754.94
2018-12-03T08:25:52.922Z,94742.80
2018-12-03T08:28:21.356Z,94745.59
2018-12-03T08:30:49.797Z,94758.75
2018-12-03T08:33:18.225Z,94758.83
2018-12-03T08:35:46.664Z,94749.41
2018-12-03T08:38:15.077Z,94741.77
2018-12-03T08:40:46.721Z,94758.52
2018-12-03T08:43:15.160Z,94753.47
2018-12-03T08:45:43.884Z,94762.92
2018-12-03T08:48:12.300Z,94758.74
2018-12-03T08:50:43.253Z,94763.75
2018-12-03T08:53:11.865Z,94760.84
2018-12-03T08:55:41.052Z,94766.59
2018-12-03T08:58:15.775Z,94761.27
2018-12-03T09:00:45.936Z,94762.28
2018-12-03T09:03:19.193Z,94760.00
2018-12-03T09:05:47.776Z,94773.28
2018-12-03T09:08:16.214Z,94769.17
2018-12-03T09:10:45.454Z,94753.48
2018-12-03T09:13:17.989Z,94757.46
2018-12-03T09:15:56.979Z,94766.13
2018-12-03T09:18:30.037Z,94766.83
2018-12-03T09:20:59.314Z,94770.10
2018-12-03T09:23:27.868Z,94778.84
2018-12-03T09:25:56.368Z,94776.23
2018-12-03T09:28:25.141Z,94771.84
2018-12-03T09:30:53.549Z,94778.45
2018-12-03T09:33:22.017Z,94771.78
2018-12-03T09:35:50.468Z,94771.84
2018-12-03T09:38:18.962Z,94774.96
2018-12-03T09:40:47.400Z,94768.83
2018-12-03T09:43:15.906Z,94770.16
2018-12-03T09:45:44.380Z,94764.13
2018-12-03T09:48:12.837Z,94775.09
2018-12-03T09:50:41.264Z,94766.41
2018-12-03T09:53:09.756Z,94757.71
2018-12-03T09:55:38.191Z,94752.36
2018-12-03T09:58:12.217Z,94752.94
2018-12-03T10:00:40.971Z,94762.42
2018-12-03T10:03:12.525Z,94742.73
2018-12-03T10:05:46.510Z,94749.42
2018-12-03T10:08:14.984Z,94748.41
2018-12-03T10:10:51.561Z,94730.64
2018-12-03T10:13:19.992Z,94723.72
2018-12-03T10:15:48.418Z,94739.16
2018-12-03T10:18:16.858Z,94741.81
2018-12-03T10:20:51.103Z,94742.09
2018-12-03T10:23:19.561Z,94749.29
2018-12-03T10:25:49.452Z,94736.63
2018-12-03T10:28:17.921Z,94734.08
2018-12-03T10:30:46.870Z,94737.03
2018-12-03T10:33:18.605Z,94727.08
2018-12-03T10:35:47.332Z,94700.95
2018-12-03T10:38:20.971Z,94716.83
2018-12-03T10:40:53.404Z,94715.23
2018-12-03T10:43:22.046Z,94726.86
2018-12-03T10:45:50.473Z,94723.12
2018-12-03T10:48:18.893Z,94707.14
2018-12-03T10:50:47.369Z,94707.77
2018-12-03T10:53:15.840Z,94710.06
2018-12-03T10:55:44.864Z,94725.49
2018-12-03T10:58:15.728Z,94707.22
2018-12-03T11:00:50.409Z,94708.22
2018-12-03T11:03:24.201Z,94705.31
2018-12-03T11:05:58.708Z,94695.96
2018-12-03T11:08:27.301Z,94684.21
2018-12-03T11:10:56.217Z,94683.20
2018-12-03T11:13:24.784Z,94693.94
2018-12-03T11:15:53.257Z,94694.42
2018-12-03T11:18:22.229Z,94695.59
2018-12-03T11:20:50.656Z,94685.33
2018-12-03T11:23:21.665Z,94686.98
2018-12-03T11:25:50.157Z,94682.25
2018-12-03T11:28:19.473Z,94676.55
2018-12-03T11:30:53.036Z,94666.94
2018-12-03T11:33:24.992Z,94667.41
2018-12-03T11:35:56.435Z,94649.80
2018-12-03T11:38:40.028Z,94654.06
2018-12-03T11:41:08.458Z,94660.91
2018-12-03T11:43:36.931Z,94634.33
2018-12-03T11:46:05.717Z,94652.12
2018-12-03T11:48:34.413Z,94636.63
2018-12-03T11:51:06.805Z,94631.74
2018-12-03T11:53:35.294Z,94624.88
2018-12-03T11:56:05.220Z,94634.35
2018-12-03T11:58:33.664Z,94630.13
2018-12-03T12:01:03.824Z,94631.25
2018-12-03T12:03:32.317Z,94619.67
2018-12-03T12:06:00.789Z,94631.42
2018-12-03T12:08:29.218Z,94633.05
2018-12-03T12:10:57.647Z,94620.47
2018-12-03T12:13:26.107Z,94624.73
2018-12-03T12:15:54.563Z,94607.77
2018-12-03T12:18:23.359Z,94604.16
2018-12-03T12:20:51.814Z,94592.27
2018-12-03T12:23:20.381Z,94593.05
2018-12-03T12:25:48.801Z,94579.69
2018-12-03T12:28:17.218Z,94581.64
2018-12-03T12:30:46.008Z,94571.37
2018-12-03T12:33:14.441Z,94571.19
2018-12-03T12:35:42.857Z,94564.50
2018-12-03T12:38:11.341Z,94557.16
2018-12-03T12:40:39.777Z,94559.28
2018-12-03T12:43:08.853Z,94568.09
2018-12-03T12:45:42.101Z,94571.19
2018-12-03T12:48:10.577Z,94564.84
2018-12-03T12:50:39.024Z,94567.95
2018-12-03T12:53:07.688Z,94579.70
2018-12-03T12:55:36.138Z,94553.42
2018-12-03T12:58:05.744Z,94546.73
2018-12-03T13:00:34.240Z,94525.53
2018-12-03T13:03:06.617Z,94524.23
2018-12-03T13:05:35.167Z,94524.22
2018-12-03T13:08:06.480Z,94521.29
2018-12-03T13:10:35.389Z,94533.70
2018-12-03T13:13:05.261Z,94521.93
2018-12-03T13:15:33.737Z,94533.84
2018-12-03T13:18:05.833Z,94522.09
2018-12-03T13:20:34.285Z,94541.34
2018-12-03T13:23:05.446Z,94527.64
2018-12-03T13:25:33.936Z,94534.16
2018-12-03T13:28:04.467Z,94540.38
2018-12-03T13:30:32.988Z,94529.28
2018-12-03T13:33:04.452Z,94531.08
2018-12-03T13:35:32.869Z,94527.34
2018-12-03T13:38:03.869Z,94521.95
2018-12-03T13:40:32.294Z,94517.38
2018-12-03T13:43:03.641Z,94524.20
2018-12-03T13:45:32.061Z,94513.29
2018-12-03T13:48:00.780Z,94518.68
2018-12-03T13:50:29.204Z,94526.03
2018-12-03T13:52:57.660Z,94523.89
2018-12-03T13:55:26.084Z,94523.89
2018-12-03T13:57:54.536Z,94538.59
2018-12-03T14:00:25.353Z,94518.67
2018-12-03T14:03:25.441Z,94519.98
2018-12-03T14:06:03.397Z,94521.46
2018-12-03T14:09:45.934Z,94518.20
2018-12-03T14:12:29.677Z,94527.64
2018-12-03T14:15:24.265Z,94516.55
2018-12-03T14:18:04.149Z,94532.69
2018-12-03T14:20:36.553Z,94530.08
2018-12-03T14:23:08.065Z,94533.17
2018-12-03T14:25:36.517Z,94534.99
2018-12-03T14:28:05.188Z,94529.78
2018-12-03T14:30:33.610Z,94548.83
2018-12-03T14:33:04.610Z,94549.00
2018-12-03T14:35:33.008Z,94540.81
2018-12-03T14:38:03.661Z,94545.55
2018-12-03T14:40:32.110Z,94537.72
2018-12-03T14:43:00.517Z,94546.20
2018-12-03T14:45:28.997Z,94542.77
2018-12-03T14:47:57.409Z,94542.94
2018-12-03T14:50:25.846Z,94545.38
2018-12-03T14:52:54.256Z,94543.59
2018-12-03T14:55:22.761Z,94545.69
2018-12-03T14:57:51.180Z,94536.90
2018-12-03T15:00:19.640Z,94549.11
2018-12-03T15:02:48.056Z,94546.50
2018-12-03T15:05:16.510Z,94551.37
2018-12-03T15:07:44.984Z,94550.90
2018-12-03T15:10:13.476Z,94549.77
2018-12-03T15:12:41.913Z,94547.95
2018-12-03T15:15:11.477Z,94548.12
2018-12-03T15:17:42.740Z,94547.62
2018-12-03T15:20:11.226Z,94545.02
2018-12-03T15:22:39.689Z,94546.16
2018-12-03T15:25:10.374Z,94554.80
2018-12-03T15:27:38.805Z,94555.59
2018-12-03T15:30:09.013Z,94565.41
2018-12-03T15:32:37.560Z,94568.33
2018-12-03T15:35:08.271Z,94558.89
2018-12-03T15:37:39.520Z,94558.55
2018-12-03T15:40:11.288Z,94546.98
2018-12-03T15:42:39.812Z,94554.94
2018-12-03T15:45:09.599Z,94560.33
2018-12-03T15:47:38.060Z,94540.77
2018-12-03T15:50:07.356Z,94549.41
2018-12-03T15:52:35.833Z,94552.50
2018-12-03T15:55:07.301Z,94539.12
2018-12-03T15:57:35.774Z,94544.84
2018-12-03T16:00:08.417Z,94546.28
2018-12-03T16:02:36.909Z,94544.84
2018-12-03T16:05:08.392Z,94553.14
2018-12-03T16:07:36.893Z,94538.46
2018-12-03T16:10:09.089Z,94549.55
2018-12-03T16:12:37.598Z,94554.59
2018-12-03T16:15:07.330Z,94552.50
2018-12-03T16:17:35.774Z,94537.33
2018-12-03T16:20:06.608Z,94539.28
2018-12-03T16:22:35.034Z,94535.20
2018-12-03T16:25:06.211Z,94529.81
2018-12-03T16:27:34.656Z,94532.77
2018-12-03T16:30:09.051Z,94532.11
2018-12-03T16:32:37.492Z,94538.45
2018-12-03T16:35:06.001Z,94537.97
2018-12-03T16:37:34.470Z,94542.36
2018-12-03T16:40:07.588Z,94538.75
2018-12-03T16:42:36.154Z,94550.66
2018-12-03T16:45:06.421Z,94548.05
2018-12-03T16:48:08.634Z,94562.88
2018-12-03T16:50:37.224Z,94562.52
2018-12-03T16:53:05.645Z,94554.55
2018-12-03T16:55:34.093Z,94550.00
2018-12-03T16:58:04.685Z,94544.96
2018-12-03T17:00:33.117Z,94542.50
2018-12-03T17:03:03.710Z,94530.77
2018-12-03T17:05:32.127Z,94534.67
2018-12-03T17:08:00.654Z,94538.27
2018-12-03T17:10:29.067Z,94533.53
2018-12-03T17:12:58.539Z,94530.44
2018-12-03T17:15:26.949Z,94537.92
2018-12-03T17:17:55.460Z,94544.92
2018-12-03T17:20:35.290Z,94531.58
2018-12-03T17:23:15.415Z,94529.63
2018-12-03T17:25:43.809Z,94526.03
2018-12-03T17:28:13.037Z,94520.20
2018-12-03T17:30:42.292Z,94521.98
2018-12-03T17:33:10.705Z,94519.03
2018-12-03T17:35:39.164Z,94518.55
2018-12-03T17:38:07.560Z,94524.72
2018-12-03T17:40:36.030Z,94534.53
2018-12-03T17:43:05.085Z,94522.80
2018-12-03T17:45:33.665Z,94522.94
2018-12-03T17:48:04.673Z,94514.81
2018-12-03T17:50:33.144Z,94503.22
2018-12-03T17:53:04.945Z,94505.17
2018-12-03T17:55:33.397Z,94506.47
2018-12-03T17:58:03.670Z,94511.50
2018-12-03T18:00:32.069Z,94513.63
2018-12-03T18:03:00.529Z,94508.58
2018-12-03T18:05:28.929Z,94511.20
2018-12-03T18:07:57.428Z,94506.77
2018-12-03T18:10:25.853Z,94503.84
2018-12-03T18:12:54.302Z,94511.33
2018-12-03T18:15:22.719Z,94503.51
2018-12-03T18:17:51.186Z,94497.47
2018-12-03T18:20:19.587Z,94490.17
2018-12-03T18:22:48.035Z,94477.61
2018-12-03T18:25:16.453Z,94489.17
2018-12-03T18:27:44.927Z,94474.48
2018-12-03T18:30:13.365Z,94460.02
2018-12-03T18:32:41.816Z,94460.51
2018-12-03T18:35:10.257Z,94457.25
2018-12-03T18:37:38.709Z,94451.22
2018-12-03T18:40:09.325Z,94448.65
2018-12-03T18:42:37.774Z,94449.44
2018-12-03T18:45:07.412Z,94452.73
2018-12-03T18:47:35.861Z,94455.83
2018-12-03T18:50:12.756Z,94443.14
2018-12-03T18:52:41.208Z,94444.92
2018-12-03T18:55:09.616Z,94444.75
2018-12-03T18:57:38.065Z,94437.58
2018-12-03T19:00:11.949Z,94439.56
2018-12-03T19:02:40.425Z,94437.13
2018-12-03T19:05:08.836Z,94429.96
2018-12-03T19:07:37.256Z,94428.00
2018-12-03T19:10:07.525Z,94422.94
2018-12-03T19:12:35.952Z,94432.70
2018-12-03T19:15:05.689Z,94417.06
2018-12-03T19:17:34.124Z,94419.53
2018-12-03T19:20:04.637Z,94416.59
2018-12-03T19:22:33.033Z,94419.02
2018-12-03T19:25:03.745Z,94419.20
2018-12-03T19:27:32.208Z,94410.89
2018-12-03T19:30:00.652Z,94414.47
2018-12-03T19:32:29.109Z,94407.30
2018-12-03T19:34:57.694Z,94403.38
2018-12-03T19:37:26.094Z,94407.30
2018-12-03T19:39:54.602Z,94403.38
2018-12-03T19:42:23.957Z,94395.08
2018-12-03T19:44:52.397Z,94413.98
2018-12-03T19:47:20.848Z,94402.24
2018-12-03T19:49:49.432Z,94402.08
2018-12-03T19:52:17.916Z,94405.98
2018-12-03T19:54:47.290Z,94407.31
2018-12-03T19:57:17.954Z,94405.19
2018-12-03T19:59:51.369Z,94396.54
2018-12-03T20:02:19.815Z,94395.73
2018-12-03T20:04:51.413Z,94408.60
2018-12-03T20:07:20.008Z,94408.28
2018-12-03T20:09:50.657Z,94392.63
2018-12-03T20:12:19.117Z,94413.97
2018-12-03T20:14:47.568Z,94410.05
2018-12-03T20:17:23.040Z,94435.19
2018-12-03T20:19:51.498Z,94438.42
2018-12-03T20:22:19.924Z,94430.28
2018-12-03T20:24:49.058Z,94467.93
2018-12-03T20:28:25.289Z,94469.55
2018-12-03T20:31:09.000Z,94483.78
2018-12-03T20:33:48.728Z,94490.91
2018-12-03T20:38:31.745Z,94484.81
2018-12-03T20:41:20.442Z,94496.18
2018-12-03T20:43:50.949Z,94489.10
2018-12-03T20:46:36.377Z,94498.73
2018-12-03T20:49:20.690Z,94490.41
2018-12-03T20:51:50.113Z,94492.28
2018-12-03T20:54:18.506Z,94498.44
2018-12-03T20:56:46.946Z,94505.73
2018-12-03T20:59:15.336Z,94508.68
2018-12-03T21:01:46.022Z,94509.54
2018-12-03T21:04:16.437Z,94516.83
2018-12-03T21:06:44.885Z,94536.57
2018-12-03T21:09:13.336Z,94525.16
2018-12-03T21:11:41.893Z,94547.53
2018-12-03T21:14:10.311Z,94554.86
2018-12-03T21:16:38.737Z,94551.43
2018-12-03T21:19:07.199Z,94558.91
2018-12-03T21:21:35.604Z,94566.42
2018-12-03T21:24:05.247Z,94568.32
2018-12-03T21:26:33.667Z,94569.78
2018-12-03T21:29:06.102Z,94578.59
2018-12-03T21:31:34.504Z,94598.51
2018-12-03T21:34:05.376Z,94587.48
2018-12-03T21:36:33.773Z,94588.15
2018-12-03T21:39:05.036Z,94600.16
2018-12-03T21:41:33.488Z,94599.84
2018-12-03T21:44:04.369Z,94609.53
2018-12-03T21:46:32.796Z,94618.00
2018-12-03T21:49:05.126Z,94625.30
2018-12-03T21:51:33.525Z,94662.23
2018-12-03T21:54:04.434Z,94635.02
2018-12-03T21:56:32.860Z,94651.55
2018-12-03T21:59:04.158Z,94649.86
2018-12-03T22:01:32.700Z,94642.49
2018-12-03T22:04:05.130Z,94671.50
2018-12-03T22:06:33.541Z,94675.27
2018-12-03T22:09:05.634Z,94678.67
2018-12-03T22:11:34.044Z,94684.44
2018-12-03T22:14:06.171Z,94677.42
2018-12-03T22:16:34.582Z,94697.80
2018-12-03T22:19:06.197Z,94686.64
2018-12-03T22:21:34.604Z,94683.38
2018-12-03T22:24:06.112Z,94699.16
2018-12-03T22:26:34.501Z,94707.11
2018-12-03T22:29:06.103Z,94711.47
2018-12-03T22:31:34.521Z,94720.08
2018-12-03T22:34:05.268Z,94715.89
2018-12-03T22:36:34.418Z,94720.81
2018-12-03T22:39:06.205Z,94728.75
2018-12-03T22:41:34.854Z,94723.41
2018-12-03T22:44:05.026Z,94741.59
2018-12-03T22:46:33.429Z,94738.78
2018-12-03T22:49:05.208Z,94748.91
2018-12-03T22:51:33.614Z,94732.77
2018-12-03T22:54:05.277Z,94752.45
2018-12-03T22:56:33.665Z,94751.83
2018-12-03T22:59:05.356Z,94766.98
2018-12-03T23:01:33.925Z,94763.98
2018-12-03T23:04:09.820Z,94759.41
2018-12-03T23:06:38.260Z,94747.45
2018-12-03T23:09:08.548Z,94773.22
2018-12-03T23:11:37.227Z,94782.16
2018-12-03T23:14:06.592Z,94762.56
2018-12-03T23:16:35.244Z,94752.30
2018-12-03T23:19:06.149Z,94760.86
2018-12-03T23:21:35.037Z,94745.12
2018-12-03T23:24:05.732Z,94777.58
2018-12-03T23:26:34.189Z,94786.14
2018-12-03T23:29:05.140Z,94780.27
2018-12-03T23:31:33.861Z,94788.17
2018-12-03T23:34:05.964Z,94788.06
2018-12-03T23:36:34.526Z,94804.11
2018-12-03T23:39:09.827Z,94806.91
2018-12-03T23:41:38.380Z,94811.90
2018-12-03T23:44:06.889Z,94819.89
2018-12-03T23:46:35.373Z,94828.16
2018-12-03T23:49:05.813Z,94822.49
2018-12-03T23:51:36.342Z,94836.77
2018-12-03T23:54:05.215Z,94829.81
2018-12-03T23:56:33.693Z,94838.08
2018-12-03T23:59:04.590Z,94844.09
